createdAt,value
2023-02-28T00:00:22.699Z,57.71
2023-02-28T00:02:52.079Z,57.44
2023-02-28T00:05:24.118Z,57.44
2023-02-28T00:07:54.159Z,57.33
2023-02-28T00:10:27.667Z,57.30
2023-02-28T00:13:01.591Z,57.51
2023-02-28T00:15:30.265Z,57.22
2023-02-28T00:17:58.745Z,57.35
2023-02-28T00:20:28.048Z,57.39
2023-02-28T00:22:56.736Z,57.68
2023-02-28T00:25:27.881Z,57.52
2023-02-28T00:27:56.874Z,57.57
2023-02-28T00:30:25.152Z,57.43
2023-02-28T00:32:54.455Z,57.13
2023-02-28T00:35:22.968Z,57.28
2023-02-28T00:37:51.527Z,57.51
2023-02-28T00:42:36.618Z,57.32
2023-02-28T00:45:06.026Z,57.50
2023-02-28T00:47:38.601Z,57.01
2023-02-28T00:50:09.697Z,56.77
2023-02-28T00:52:38.841Z,56.76
2023-02-28T00:55:07.778Z,56.59
2023-02-28T00:57:36.223Z,56.34
2023-02-28T01:00:06.780Z,56.40
2023-02-28T01:02:35.548Z,56.38
2023-02-28T01:05:07.683Z,56.61
2023-02-28T01:07:36.403Z,56.64
2023-02-28T01:10:05.832Z,56.75
2023-02-28T01:12:34.229Z,56.88
2023-02-28T01:15:03.083Z,56.88
2023-02-28T01:17:32.218Z,56.78
2023-02-28T01:20:03.026Z,56.93
2023-02-28T01:22:32.015Z,57.24
2023-02-28T01:25:01.011Z,57.25
2023-02-28T01:27:30.314Z,57.25
2023-02-28T01:30:03.841Z,57.20
2023-02-28T01:32:32.203Z,57.14
2023-02-28T01:35:00.482Z,57.23
2023-02-28T01:37:29.381Z,57.00
2023-02-28T01:39:58.055Z,56.93
2023-02-28T01:42:26.845Z,57.04
2023-02-28T01:45:24.927Z,56.95
2023-02-28T01:47:55.765Z,56.83
2023-02-28T01:50:26.397Z,56.79
2023-02-28T01:52:56.243Z,56.89
2023-02-28T01:55:29.673Z,57.22
2023-02-28T01:58:03.009Z,57.41
2023-02-28T02:00:31.903Z,57.23
2023-02-28T02:03:06.318Z,57.48
2023-02-28T02:05:35.629Z,57.24
2023-02-28T02:08:07.952Z,57.12
2023-02-28T02:10:43.251Z,57.11
2023-02-28T02:13:14.715Z,57.30
2023-02-28T02:15:55.284Z,57.13
2023-02-28T02:18:29.893Z,56.97
2023-02-28T02:21:13.638Z,57.20
2023-02-28T02:24:00.657Z,57.18
2023-02-28T02:26:35.490Z,57.21
2023-02-28T02:29:44.217Z,57.37
2023-02-28T02:32:18.090Z,57.22
2023-02-28T02:35:30.870Z,57.08
2023-02-28T02:38:23.339Z,56.70
2023-02-28T02:41:04.685Z,56.76
2023-02-28T02:43:37.058Z,56.76
2023-02-28T02:46:13.646Z,56.95
2023-02-28T02:48:42.020Z,56.82
2023-02-28T02:51:18.752Z,57.01
2023-02-28T02:53:52.944Z,56.86
2023-02-28T02:56:24.670Z,56.85
2023-02-28T02:58:53.256Z,57.21
2023-02-28T03:01:29.154Z,57.16
2023-02-28T03:04:06.823Z,57.59
2023-02-28T03:06:36.427Z,57.71
2023-02-28T03:09:06.147Z,57.68
2023-02-28T03:11:34.521Z,57.49
2023-02-28T03:14:31.892Z,57.72
2023-02-28T03:17:25.148Z,57.48
2023-02-28T03:20:06.480Z,57.24
2023-02-28T03:22:58.789Z,57.56
2023-02-28T03:25:32.077Z,57.42
2023-02-28T03:28:03.844Z,57.75
2023-02-28T03:30:41.129Z,57.40
2023-02-28T03:33:14.017Z,57.33
2023-02-28T03:36:04.213Z,57.46
2023-02-28T03:38:35.471Z,57.62
2023-02-28T03:41:19.001Z,57.62
2023-02-28T03:43:55.059Z,57.62
2023-02-28T03:46:26.192Z,57.62
2023-02-28T03:49:06.165Z,57.39
2023-02-28T03:51:36.590Z,57.66
2023-02-28T03:54:08.524Z,57.66
2023-02-28T03:56:44.822Z,57.52
2023-02-28T03:59:17.810Z,57.61
2023-02-28T04:01:47.711Z,57.54
2023-02-28T04:04:16.977Z,57.50
2023-02-28T04:06:51.693Z,57.70
2023-02-28T04:09:20.147Z,57.82
2023-02-28T04:11:53.184Z,57.83
2023-02-28T04:14:21.517Z,57.69
2023-02-28T04:16:49.877Z,57.78
2023-02-28T04:19:18.279Z,57.85
2023-02-28T04:21:48.426Z,57.97
2023-02-28T04:24:24.463Z,57.97
2023-02-28T04:26:56.379Z,57.94
2023-02-28T04:29:29.627Z,58.00
2023-02-28T04:32:02.169Z,57.87
2023-02-28T04:34:31.650Z,57.89
2023-02-28T04:37:16.988Z,58.03
2023-02-28T04:39:46.409Z,58.16
2023-02-28T04:42:16.219Z,58.20
2023-02-28T04:44:46.336Z,58.04
2023-02-28T04:47:15.025Z,57.84
2023-02-28T04:49:44.128Z,57.81
2023-02-28T04:52:12.507Z,57.89
2023-02-28T04:54:42.934Z,57.98
2023-02-28T04:57:11.735Z,58.03
2023-02-28T04:59:41.128Z,58.05
2023-02-28T05:02:10.086Z,58.41
2023-02-28T05:04:38.640Z,58.54
2023-02-28T05:07:07.198Z,58.94
2023-02-28T05:09:36.089Z,59.09
2023-02-28T05:12:08.156Z,59.23
2023-02-28T05:14:38.285Z,59.17
2023-02-28T05:17:06.763Z,59.07
2023-02-28T05:19:36.786Z,58.84
2023-02-28T05:22:05.268Z,59.00
2023-02-28T05:24:41.330Z,58.94
2023-02-28T05:27:10.033Z,59.15
2023-02-28T05:29:42.914Z,59.12
2023-02-28T05:32:14.897Z,59.08
2023-02-28T05:34:43.370Z,59.33
2023-02-28T05:37:15.207Z,59.20
2023-02-28T05:39:44.029Z,59.49
2023-02-28T05:42:14.546Z,59.32
2023-02-28T05:44:44.770Z,59.23
2023-02-28T05:47:16.580Z,59.20
2023-02-28T05:49:45.334Z,59.38
2023-02-28T05:52:15.541Z,59.27
2023-02-28T05:54:43.930Z,59.50
2023-02-28T05:57:19.076Z,59.25
2023-02-28T05:59:52.986Z,59.34
2023-02-28T06:02:21.524Z,59.47
2023-02-28T06:04:50.061Z,59.33
2023-02-28T06:07:18.951Z,59.09
2023-02-28T06:09:47.738Z,59.22
2023-02-28T06:12:16.735Z,59.36
2023-02-28T06:14:45.117Z,59.29
2023-02-28T06:17:18.109Z,59.13
2023-02-28T06:19:47.615Z,59.05
2023-02-28T06:22:16.100Z,59.20
2023-02-28T06:24:44.589Z,59.22
2023-02-28T06:27:13.072Z,59.52
2023-02-28T06:29:41.390Z,59.64
2023-02-28T06:32:10.727Z,59.53
2023-02-28T06:34:40.575Z,59.39
2023-02-28T06:37:09.060Z,59.51
2023-02-28T06:39:40.512Z,58.93
2023-02-28T06:42:09.199Z,58.69
2023-02-28T06:44:37.579Z,58.65
2023-02-28T06:47:06.681Z,58.67
2023-02-28T06:49:39.982Z,59.31
2023-02-28T06:52:11.120Z,59.23
2023-02-28T06:54:39.709Z,59.23
2023-02-28T06:57:08.500Z,59.44
2023-02-28T06:59:37.704Z,59.81
2023-02-28T07:02:08.142Z,59.84
2023-02-28T07:04:37.045Z,59.94
2023-02-28T07:07:08.577Z,60.04
2023-02-28T07:09:38.903Z,59.63
2023-02-28T07:12:07.693Z,59.82
2023-02-28T07:14:37.946Z,59.94
2023-02-28T07:17:08.963Z,59.38
2023-02-28T07:19:40.373Z,59.09
2023-02-28T07:22:08.700Z,58.88
2023-02-28T07:24:37.185Z,58.23
2023-02-28T07:27:05.562Z,57.61
2023-02-28T07:29:34.762Z,57.48
2023-02-28T07:32:03.175Z,57.53
2023-02-28T07:34:32.141Z,57.57
2023-02-28T07:37:01.240Z,57.75
2023-02-28T07:39:29.629Z,57.60
2023-02-28T07:41:58.216Z,57.19
2023-02-28T07:44:28.041Z,56.91
2023-02-28T07:46:56.671Z,56.85
2023-02-28T07:49:27.403Z,56.37
2023-02-28T07:51:56.044Z,56.14
2023-02-28T07:54:25.762Z,56.66
2023-02-28T07:56:54.447Z,56.84
2023-02-28T07:59:23.545Z,57.04
2023-02-28T08:01:52.324Z,56.87
2023-02-28T08:04:20.821Z,56.03
2023-02-28T08:07:00.681Z,56.18
2023-02-28T08:09:31.206Z,56.55
2023-02-28T08:12:02.760Z,56.98
2023-02-28T08:14:31.550Z,56.90
2023-02-28T08:17:00.146Z,57.13
2023-02-28T08:19:29.546Z,57.26
2023-02-28T08:21:58.134Z,56.94
2023-02-28T08:24:26.717Z,57.11
2023-02-28T08:26:56.048Z,57.14
2023-02-28T08:29:24.934Z,57.29
2023-02-28T08:31:53.541Z,57.02
2023-02-28T08:34:22.286Z,57.12
2023-02-28T08:36:50.667Z,56.83
2023-02-28T08:39:23.047Z,56.60
2023-02-28T08:42:02.134Z,56.48
2023-02-28T08:44:35.436Z,56.54
2023-02-28T08:47:03.853Z,56.80
2023-02-28T08:49:32.449Z,56.36
2023-02-28T08:52:01.133Z,56.28
2023-02-28T08:54:32.685Z,55.76
2023-02-28T08:57:01.676Z,54.76
2023-02-28T08:59:30.584Z,54.46
2023-02-28T09:02:04.095Z,54.04
2023-02-28T09:04:32.767Z,54.06
2023-02-28T09:07:01.258Z,53.77
2023-02-28T09:09:29.728Z,53.42
2023-02-28T09:11:58.217Z,53.62
2023-02-28T09:14:29.767Z,53.33
2023-02-28T09:16:58.175Z,52.18
2023-02-28T09:19:26.632Z,52.29
2023-02-28T09:21:55.016Z,52.69
2023-02-28T09:24:23.605Z,52.69
2023-02-28T09:27:03.815Z,53.13
2023-02-28T09:29:34.715Z,52.39
2023-02-28T09:32:03.574Z,51.86
2023-02-28T09:34:32.801Z,52.02
2023-02-28T09:37:01.232Z,51.50
2023-02-28T09:39:30.273Z,50.70
2023-02-28T09:41:59.059Z,50.67
2023-02-28T09:44:33.424Z,50.36
2023-02-28T09:47:07.191Z,49.33
2023-02-28T09:49:44.871Z,48.53
2023-02-28T09:52:20.568Z,48.98
2023-02-28T09:54:49.030Z,49.99
2023-02-28T09:57:44.030Z,50.40
2023-02-28T10:00:26.239Z,50.48
2023-02-28T10:03:11.841Z,50.20
2023-02-28T10:06:04.676Z,49.62
2023-02-28T10:08:44.019Z,49.69
2023-02-28T10:11:17.764Z,49.09
2023-02-28T10:14:03.817Z,48.56
2023-02-28T10:16:39.821Z,47.54
2023-02-28T10:19:15.952Z,47.93
2023-02-28T10:21:59.337Z,47.87
2023-02-28T10:24:47.342Z,47.25
2023-02-28T10:27:23.154Z,47.37
2023-02-28T10:29:54.631Z,47.33
2023-02-28T10:32:46.656Z,47.06
2023-02-28T10:35:20.670Z,45.77
2023-02-28T10:37:57.455Z,45.38
2023-02-28T10:40:27.360Z,45.37
2023-02-28T10:43:04.961Z,44.97
2023-02-28T10:45:36.012Z,45.55
2023-02-28T10:48:16.872Z,45.24
2023-02-28T10:50:46.384Z,44.49
2023-02-28T10:53:27.190Z,43.61
2023-02-28T10:56:09.253Z,43.70
2023-02-28T10:58:52.993Z,43.30
2023-02-28T11:01:24.908Z,43.30
2023-02-28T11:03:53.747Z,44.13
2023-02-28T11:06:28.486Z,43.73
2023-02-28T11:08:59.222Z,42.88
2023-02-28T11:11:30.823Z,42.08
2023-02-28T11:14:06.001Z,42.85
2023-02-28T11:16:36.636Z,43.07
2023-02-28T11:19:08.004Z,41.31
2023-02-28T11:21:41.393Z,40.97
2023-02-28T11:24:24.916Z,41.94
2023-02-28T11:26:53.399Z,41.63
2023-02-28T11:29:48.210Z,41.52
2023-02-28T11:32:23.158Z,40.65
2023-02-28T11:35:19.060Z,41.28
2023-02-28T11:37:47.642Z,39.52
2023-02-28T11:40:17.846Z,39.66
2023-02-28T11:43:23.826Z,39.74
2023-02-28T11:46:07.557Z,41.26
2023-02-28T11:49:08.103Z,41.06
2023-02-28T11:51:43.446Z,40.91
2023-02-28T11:54:27.518Z,40.01
2023-02-28T11:57:10.520Z,39.88
2023-02-28T11:59:39.515Z,40.49
2023-02-28T12:02:10.735Z,38.58
2023-02-28T12:04:58.194Z,38.78
2023-02-28T12:07:40.605Z,38.47
2023-02-28T12:10:28.441Z,38.09
2023-02-28T12:13:18.836Z,39.10
2023-02-28T12:16:06.065Z,38.26
2023-02-28T12:18:47.147Z,38.22
2023-02-28T12:21:22.181Z,38.58
2023-02-28T12:24:11.955Z,37.38
2023-02-28T12:26:45.775Z,37.01
2023-02-28T12:29:21.834Z,37.23
2023-02-28T12:32:00.466Z,37.35
2023-02-28T12:34:32.739Z,37.53
2023-02-28T12:37:03.959Z,37.30
2023-02-28T12:39:48.598Z,37.16
2023-02-28T12:42:23.858Z,37.19
2023-02-28T12:45:14.481Z,36.79
2023-02-28T12:47:43.762Z,35.73
2023-02-28T12:50:15.215Z,35.91
2023-02-28T12:52:54.448Z,36.73
2023-02-28T12:55:45.250Z,36.74
2023-02-28T13:00:27.061Z,36.12
2023-02-28T13:03:31.484Z,36.69
2023-02-28T13:06:15.633Z,37.13
2023-02-28T13:08:50.056Z,37.25
2023-02-28T13:11:35.766Z,37.76
2023-02-28T13:14:21.437Z,37.41
2023-02-28T13:17:00.697Z,36.07
2023-02-28T13:19:31.805Z,36.03
2023-02-28T13:22:01.013Z,35.54
2023-02-28T13:24:43.858Z,35.77
2023-02-28T13:27:15.169Z,35.55
2023-02-28T13:29:45.695Z,35.47
2023-02-28T13:32:34.561Z,34.82
2023-02-28T13:35:02.938Z,34.07
2023-02-28T13:37:37.309Z,34.07
2023-02-28T13:40:11.884Z,34.42
2023-02-28T13:42:50.932Z,35.62
2023-02-28T13:45:31.523Z,35.72
2023-02-28T13:48:04.172Z,35.38
2023-02-28T13:50:39.820Z,34.44
2023-02-28T13:53:14.555Z,34.29
2023-02-28T13:55:44.881Z,33.58
2023-02-28T13:58:25.335Z,35.07
2023-02-28T14:01:23.078Z,36.22
2023-02-28T14:04:17.615Z,36.86
2023-02-28T14:06:50.119Z,37.43
2023-02-28T14:09:20.605Z,37.30
2023-02-28T14:11:52.669Z,37.05
2023-02-28T14:14:37.126Z,36.56
2023-02-28T14:17:10.944Z,36.56
2023-02-28T14:19:39.720Z,36.77
2023-02-28T14:22:46.838Z,35.93
2023-02-28T14:25:34.451Z,35.56
2023-02-28T14:28:41.234Z,35.38
2023-02-28T14:31:35.947Z,34.71
2023-02-28T14:34:27.786Z,34.68
2023-02-28T14:36:56.124Z,34.95
2023-02-28T14:39:25.786Z,34.82
2023-02-28T14:41:54.317Z,34.25
2023-02-28T14:44:27.000Z,34.08
2023-02-28T14:46:57.701Z,33.97
2023-02-28T14:49:25.921Z,33.28
2023-02-28T14:52:11.028Z,33.33
2023-02-28T14:54:40.078Z,33.03
2023-02-28T14:57:27.502Z,33.58
2023-02-28T15:00:23.225Z,33.13
2023-02-28T15:02:51.810Z,33.37
2023-02-28T15:05:23.155Z,33.74
2023-02-28T15:08:23.084Z,34.08
2023-02-28T15:10:52.887Z,34.48
2023-02-28T15:13:33.247Z,35.03
2023-02-28T15:16:04.072Z,35.51
2023-02-28T15:18:54.075Z,35.99
2023-02-28T15:21:26.274Z,36.91
2023-02-28T15:24:25.133Z,38.17
2023-02-28T15:27:01.513Z,39.30
2023-02-28T15:29:30.909Z,40.56
2023-02-28T15:32:05.771Z,41.63
2023-02-28T15:34:44.450Z,42.79
2023-02-28T15:37:42.578Z,43.86
2023-02-28T15:40:19.112Z,45.01
2023-02-28T15:43:07.561Z,45.72
2023-02-28T15:45:43.045Z,46.45
2023-02-28T15:48:18.861Z,47.21
2023-02-28T15:50:55.650Z,47.66
2023-02-28T15:53:26.790Z,48.39
2023-02-28T15:56:03.675Z,49.05
2023-02-28T15:58:32.450Z,49.72
2023-02-28T16:01:09.024Z,50.32
2023-02-28T16:03:43.136Z,50.81
2023-02-28T16:06:17.973Z,51.68
2023-02-28T16:08:46.759Z,51.76
2023-02-28T16:11:16.470Z,52.25
2023-02-28T16:13:44.958Z,52.68
2023-02-28T16:16:19.532Z,52.96
2023-02-28T16:18:48.062Z,53.24
2023-02-28T16:21:16.341Z,53.81
2023-02-28T16:23:45.029Z,54.19
2023-02-28T16:26:20.296Z,54.44
2023-02-28T16:28:49.061Z,54.89
2023-02-28T16:31:17.956Z,55.28
2023-02-28T16:33:46.643Z,55.42
2023-02-28T16:36:19.920Z,55.61
2023-02-28T16:38:51.700Z,56.28
2023-02-28T16:41:22.441Z,56.33
2023-02-28T16:43:51.605Z,56.72
2023-02-28T16:46:21.084Z,56.85
2023-02-28T16:48:52.779Z,57.18
2023-02-28T16:51:23.031Z,57.37
2023-02-28T16:53:57.498Z,57.49
2023-02-28T16:56:28.813Z,57.57
2023-02-28T16:59:00.971Z,57.83
2023-02-28T17:01:33.891Z,58.27
2023-02-28T17:04:03.390Z,58.29
2023-02-28T17:06:33.717Z,58.39
2023-02-28T17:09:05.070Z,58.42
2023-02-28T17:11:35.487Z,58.70
2023-02-28T17:14:05.591Z,58.74
2023-02-28T17:16:48.775Z,58.92
2023-02-28T17:19:22.311Z,59.14
2023-02-28T17:21:52.499Z,59.47
2023-02-28T17:24:30.867Z,59.41
2023-02-28T17:27:02.553Z,59.84
2023-02-28T17:29:32.498Z,59.72
2023-02-28T17:32:17.331Z,59.90
2023-02-28T17:34:47.420Z,60.26
2023-02-28T17:37:17.597Z,60.46
2023-02-28T17:39:46.444Z,60.33
2023-02-28T17:42:17.586Z,60.48
2023-02-28T17:44:46.274Z,60.56
2023-02-28T17:47:14.758Z,60.62
2023-02-28T17:49:43.965Z,60.84
2023-02-28T17:52:12.447Z,60.95
2023-02-28T17:54:41.643Z,61.15
2023-02-28T17:57:14.546Z,61.07
2023-02-28T17:59:44.141Z,61.23
2023-02-28T18:02:13.850Z,61.26
2023-02-28T18:04:47.556Z,61.32
2023-02-28T18:07:16.870Z,61.29
2023-02-28T18:09:45.553Z,61.41
2023-02-28T18:12:14.035Z,61.53
2023-02-28T18:14:43.648Z,61.53
2023-02-28T18:17:13.461Z,61.66
2023-02-28T18:19:44.397Z,61.60
2023-02-28T18:22:13.194Z,61.60
2023-02-28T18:24:41.571Z,61.88
2023-02-28T18:27:11.383Z,61.79
2023-02-28T18:29:41.848Z,61.80
2023-02-28T18:32:10.576Z,62.02
2023-02-28T18:34:38.990Z,62.34
2023-02-28T18:37:07.468Z,62.42
2023-02-28T18:39:35.953Z,62.47
2023-02-28T18:42:04.645Z,62.73
2023-02-28T18:44:33.330Z,62.99
2023-02-28T18:47:02.475Z,63.12
2023-02-28T18:49:35.932Z,63.19
2023-02-28T18:52:04.656Z,63.33
2023-02-28T18:54:33.404Z,63.31
2023-02-28T18:57:01.719Z,63.47
2023-02-28T18:59:30.370Z,63.41
2023-02-28T19:01:58.857Z,63.58
2023-02-28T19:04:27.286Z,63.72
2023-02-28T19:06:55.618Z,63.80
2023-02-28T19:09:24.000Z,63.93
2023-02-28T19:11:52.384Z,63.87
2023-02-28T19:14:22.102Z,63.89
2023-02-28T19:16:52.300Z,63.63
2023-02-28T19:19:20.803Z,63.91
2023-02-28T19:21:49.596Z,64.14
2023-02-28T19:24:20.079Z,64.11
2023-02-28T19:26:48.715Z,64.10
2023-02-28T19:29:17.097Z,64.32
2023-02-28T19:31:46.293Z,64.30
2023-02-28T19:34:16.112Z,64.54
2023-02-28T19:36:44.907Z,64.40
2023-02-28T19:39:13.901Z,64.44
2023-02-28T19:41:42.385Z,64.54
2023-02-28T19:44:10.770Z,64.79
2023-02-28T19:46:44.709Z,64.85
2023-02-28T19:49:13.065Z,64.93
2023-02-28T19:51:41.853Z,64.77
2023-02-28T19:54:13.208Z,64.82
2023-02-28T19:56:42.204Z,64.74
2023-02-28T19:59:21.081Z,64.83
2023-02-28T20:01:54.940Z,64.79
2023-02-28T20:04:24.490Z,64.94
2023-02-28T20:06:55.724Z,65.05
2023-02-28T20:09:24.494Z,65.09
2023-02-28T20:11:59.567Z,65.09
2023-02-28T20:14:28.122Z,65.09
2023-02-28T20:16:59.633Z,65.08
2023-02-28T20:19:28.258Z,65.03
2023-02-28T20:21:56.950Z,64.98
2023-02-28T20:24:26.252Z,65.00
2023-02-28T20:26:55.542Z,65.15
2023-02-28T20:29:24.559Z,65.25
2023-02-28T20:31:53.865Z,65.07
2023-02-28T20:34:23.671Z,65.49
2023-02-28T20:36:52.360Z,65.45
2023-02-28T20:39:20.746Z,65.44
2023-02-28T20:41:49.328Z,65.41
2023-02-28T20:44:20.065Z,65.13
2023-02-28T20:46:48.556Z,64.90
2023-02-28T20:49:17.254Z,64.90
2023-02-28T20:51:45.735Z,64.96
2023-02-28T20:54:16.179Z,64.94
2023-02-28T20:56:44.945Z,64.86
2023-02-28T20:59:13.428Z,65.04
2023-02-28T21:01:44.561Z,65.14
2023-02-28T21:04:13.011Z,64.93
2023-02-28T21:06:47.732Z,65.07
2023-02-28T21:09:18.539Z,64.95
2023-02-28T21:11:46.912Z,65.03
2023-02-28T21:14:17.136Z,65.02
2023-02-28T21:16:47.364Z,64.90
2023-02-28T21:19:15.952Z,64.80
2023-02-28T21:21:44.791Z,65.00
2023-02-28T21:24:14.736Z,64.80
2023-02-28T21:26:44.600Z,64.78
2023-02-28T21:29:13.590Z,64.81
2023-02-28T21:31:42.378Z,64.70
2023-02-28T21:34:12.613Z,64.56
2023-02-28T21:36:45.930Z,64.37
2023-02-28T21:39:17.340Z,64.14
2023-02-28T21:41:46.637Z,63.97
2023-02-28T21:44:19.112Z,64.20
2023-02-28T21:46:49.194Z,64.09
2023-02-28T21:49:17.937Z,64.37
2023-02-28T21:51:47.353Z,64.72
2023-02-28T21:54:15.717Z,64.78
2023-02-28T21:56:44.712Z,65.05
2023-02-28T21:59:13.300Z,65.17
2023-02-28T22:01:44.193Z,65.43
2023-02-28T22:04:25.324Z,65.73
2023-02-28T22:06:59.643Z,66.01
2023-02-28T22:09:28.125Z,66.23
2023-02-28T22:11:57.585Z,66.83
2023-02-28T22:14:26.535Z,67.18
2023-02-28T22:17:01.026Z,67.57
2023-02-28T22:19:29.644Z,67.96
2023-02-28T22:21:58.019Z,68.27
2023-02-28T22:24:26.516Z,68.57
2023-02-28T22:26:54.998Z,68.76
2023-02-28T22:29:23.799Z,68.91
2023-02-28T22:31:52.213Z,69.27
2023-02-28T22:34:20.851Z,69.47
2023-02-28T22:36:49.646Z,69.60
2023-02-28T22:39:18.232Z,69.60
2023-02-28T22:41:46.619Z,69.64
2023-02-28T22:44:25.227Z,69.53
2023-02-28T22:46:54.514Z,69.78
2023-02-28T22:49:23.016Z,69.82
2023-02-28T22:51:52.116Z,69.99
2023-02-28T22:54:20.698Z,69.84
2023-02-28T22:56:50.424Z,69.75
2023-02-28T22:59:19.305Z,69.63
2023-02-28T23:01:48.015Z,69.62
2023-02-28T23:04:17.129Z,69.55
2023-02-28T23:06:45.867Z,69.60
2023-02-28T23:09:18.356Z,69.37
2023-02-28T23:11:50.392Z,69.31
2023-02-28T23:14:20.369Z,69.29
2023-02-28T23:16:52.420Z,69.12
2023-02-28T23:19:26.834Z,69.15
2023-02-28T23:21:56.035Z,69.14
2023-02-28T23:24:25.960Z,69.11
2023-02-28T23:26:56.616Z,68.88
2023-02-28T23:29:27.939Z,69.01
2023-02-28T23:31:56.442Z,68.98
2023-02-28T23:34:32.386Z,68.96
2023-02-28T23:37:01.986Z,68.90
2023-02-28T23:39:30.777Z,68.99
2023-02-28T23:41:59.798Z,68.90
2023-02-28T23:44:28.261Z,68.99
2023-02-28T23:46:56.646Z,68.76
2023-02-28T23:49:26.081Z,68.71
2023-02-28T23:51:54.783Z,68.62
2023-02-28T23:54:24.854Z,68.68
2023-02-28T23:56:54.371Z,68.55
2023-02-28T23:59:22.957Z,68.73
